sensor_id;sensor_type;location;lat;lon;timestamp;P1;durP1;ratioP1;P2;durP2;ratioP2
80119;SDS011;69425;55.040;82.918;2023-07-08T00:01:58;16.00;;;10.13;;
80119;SDS011;69425;55.040;82.918;2023-07-08T00:06:59;16.00;;;10.13;;
80119;SDS011;69425;55.040;82.918;2023-07-08T00:12:00;16.75;;;10.98;;
80119;SDS011;69425;55.040;82.918;2023-07-08T00:17:04;14.68;;;9.73;;
80119;SDS011;69425;55.040;82.918;2023-07-08T00:22:12;15.05;;;9.52;;
80119;SDS011;69425;55.040;82.918;2023-07-08T00:27:14;16.13;;;11.35;;
80119;SDS011;69425;55.040;82.918;2023-07-08T00:32:16;16.73;;;11.20;;
80119;SDS011;69425;55.040;82.918;2023-07-08T00:37:18;17.40;;;10.85;;
80119;SDS011;69425;55.040;82.918;2023-07-08T00:42:19;15.13;;;11.25;;
80119;SDS011;69425;55.040;82.918;2023-07-08T00:47:24;15.50;;;10.75;;
80119;SDS011;69425;55.040;82.918;2023-07-08T00:52:26;16.15;;;11.48;;
80119;SDS011;69425;55.040;82.918;2023-07-08T00:57:29;16.40;;;12.13;;
80119;SDS011;69425;55.040;82.918;2023-07-08T01:02:34;17.50;;;11.80;;
80119;SDS011;69425;55.040;82.918;2023-07-08T01:07:37;16.15;;;11.00;;
80119;SDS011;69425;55.040;82.918;2023-07-08T01:12:40;17.45;;;12.20;;
80119;SDS011;69425;55.040;82.918;2023-07-08T01:17:46;17.25;;;11.88;;
80119;SDS011;69425;55.040;82.918;2023-07-08T01:22:49;17.77;;;11.38;;
80119;SDS011;69425;55.040;82.918;2023-07-08T01:27:52;18.55;;;11.07;;
80119;SDS011;69425;55.040;82.918;2023-07-08T01:32:56;18.90;;;12.68;;
80119;SDS011;69425;55.040;82.918;2023-07-08T01:38:03;18.70;;;11.82;;
80119;SDS011;69425;55.040;82.918;2023-07-08T01:43:06;19.48;;;11.98;;
80119;SDS011;69425;55.040;82.918;2023-07-08T01:48:09;19.98;;;12.77;;
80119;SDS011;69425;55.040;82.918;2023-07-08T01:53:14;18.13;;;12.25;;
80119;SDS011;69425;55.040;82.918;2023-07-08T01:58:17;20.85;;;13.23;;
80119;SDS011;69425;55.040;82.918;2023-07-08T02:03:19;24.30;;;12.65;;
80119;SDS011;69425;55.040;82.918;2023-07-08T02:08:21;19.42;;;12.10;;
80119;SDS011;69425;55.040;82.918;2023-07-08T02:13:23;19.77;;;12.52;;
80119;SDS011;69425;55.040;82.918;2023-07-08T02:18:25;23.83;;;14.38;;
80119;SDS011;69425;55.040;82.918;2023-07-08T02:23:27;25.77;;;15.07;;
80119;SDS011;69425;55.040;82.918;2023-07-08T02:28:29;23.42;;;14.20;;
80119;SDS011;69425;55.040;82.918;2023-07-08T02:33:30;23.33;;;14.80;;
80119;SDS011;69425;55.040;82.918;2023-07-08T02:38:32;32.28;;;20.27;;
80119;SDS011;69425;55.040;82.918;2023-07-08T02:43:34;22.67;;;12.95;;
80119;SDS011;69425;55.040;82.918;2023-07-08T02:48:35;19.58;;;12.68;;
80119;SDS011;69425;55.040;82.918;2023-07-08T02:53:38;19.70;;;12.77;;
80119;SDS011;69425;55.040;82.918;2023-07-08T02:58:39;18.65;;;12.82;;
80119;SDS011;69425;55.040;82.918;2023-07-08T03:03:40;23.70;;;13.45;;
80119;SDS011;69425;55.040;82.918;2023-07-08T03:08:43;24.33;;;12.68;;
80119;SDS011;69425;55.040;82.918;2023-07-08T03:13:44;22.33;;;12.85;;
80119;SDS011;69425;55.040;82.918;2023-07-08T03:18:45;26.65;;;12.88;;
80119;SDS011;69425;55.040;82.918;2023-07-08T03:23:49;20.73;;;12.15;;
80119;SDS011;69425;55.040;82.918;2023-07-08T03:28:50;25.85;;;15.75;;
80119;SDS011;69425;55.040;82.918;2023-07-08T03:33:51;79.90;;;21.50;;
80119;SDS011;69425;55.040;82.918;2023-07-08T03:38:55;30.98;;;17.92;;
80119;SDS011;69425;55.040;82.918;2023-07-08T03:43:57;23.33;;;14.20;;
80119;SDS011;69425;55.040;82.918;2023-07-08T03:48:58;20.77;;;11.00;;
80119;SDS011;69425;55.040;82.918;2023-07-08T03:54:01;18.58;;;8.93;;
80119;SDS011;69425;55.040;82.918;2023-07-08T03:59:02;22.00;;;8.68;;
80119;SDS011;69425;55.040;82.918;2023-07-08T04:04:03;20.38;;;8.85;;
80119;SDS011;69425;55.040;82.918;2023-07-08T04:09:06;12.88;;;6.72;;
80119;SDS011;69425;55.040;82.918;2023-07-08T04:14:08;13.05;;;6.32;;
80119;SDS011;69425;55.040;82.918;2023-07-08T04:19:09;16.42;;;6.60;;
80119;SDS011;69425;55.040;82.918;2023-07-08T04:24:13;14.57;;;7.28;;
80119;SDS011;69425;55.040;82.918;2023-07-08T04:29:15;11.88;;;7.30;;
80119;SDS011;69425;55.040;82.918;2023-07-08T04:34:18;14.10;;;7.50;;
80119;SDS011;69425;55.040;82.918;2023-07-08T04:39:21;9.70;;;6.43;;
80119;SDS011;69425;55.040;82.918;2023-07-08T04:44:22;18.17;;;9.23;;
80119;SDS011;69425;55.040;82.918;2023-07-08T04:49:23;17.98;;;8.95;;
80119;SDS011;69425;55.040;82.918;2023-07-08T04:54:26;14.45;;;7.35;;
80119;SDS011;69425;55.040;82.918;2023-07-08T04:59:28;11.20;;;6.53;;
80119;SDS011;69425;55.040;82.918;2023-07-08T05:04:29;9.50;;;5.32;;
80119;SDS011;69425;55.040;82.918;2023-07-08T05:09:32;5.50;;;4.05;;
80119;SDS011;69425;55.040;82.918;2023-07-08T05:14:33;5.78;;;3.80;;
80119;SDS011;69425;55.040;82.918;2023-07-08T05:19:34;9.32;;;5.78;;
80119;SDS011;69425;55.040;82.918;2023-07-08T05:24:37;8.70;;;5.47;;
80119;SDS011;69425;55.040;82.918;2023-07-08T05:29:38;7.50;;;5.40;;
80119;SDS011;69425;55.040;82.918;2023-07-08T05:34:39;10.68;;;6.70;;
80119;SDS011;69425;55.040;82.918;2023-07-08T05:39:42;7.32;;;4.32;;
80119;SDS011;69425;55.040;82.918;2023-07-08T05:44:43;6.47;;;3.83;;
80119;SDS011;69425;55.040;82.918;2023-07-08T05:49:44;5.13;;;3.83;;
80119;SDS011;69425;55.040;82.918;2023-07-08T05:54:47;9.93;;;4.78;;
80119;SDS011;69425;55.040;82.918;2023-07-08T05:59:48;6.20;;;4.07;;
80119;SDS011;69425;55.040;82.918;2023-07-08T06:04:50;8.95;;;5.57;;
80119;SDS011;69425;55.040;82.918;2023-07-08T06:09:52;10.15;;;6.45;;
80119;SDS011;69425;55.040;82.918;2023-07-08T06:14:53;11.10;;;5.63;;
80119;SDS011;69425;55.040;82.918;2023-07-08T06:19:55;9.48;;;5.15;;
80119;SDS011;69425;55.040;82.918;2023-07-08T06:24:57;13.38;;;5.70;;
80119;SDS011;69425;55.040;82.918;2023-07-08T06:29:58;9.95;;;6.85;;
80119;SDS011;69425;55.040;82.918;2023-07-08T06:35:00;9.82;;;5.55;;
80119;SDS011;69425;55.040;82.918;2023-07-08T06:40:03;7.93;;;5.28;;
80119;SDS011;69425;55.040;82.918;2023-07-08T06:45:05;10.43;;;5.95;;
80119;SDS011;69425;55.040;82.918;2023-07-08T06:50:07;6.82;;;5.03;;
80119;SDS011;69425;55.040;82.918;2023-07-08T06:55:10;12.13;;;6.85;;
80119;SDS011;69425;55.040;82.918;2023-07-08T07:00:12;7.38;;;5.45;;
80119;SDS011;69425;55.040;82.918;2023-07-08T07:05:14;7.43;;;6.03;;
80119;SDS011;69425;55.040;82.918;2023-07-08T07:10:17;6.80;;;5.10;;
80119;SDS011;69425;55.040;82.918;2023-07-08T07:15:19;6.13;;;4.28;;
80119;SDS011;69425;55.040;82.918;2023-07-08T07:20:20;8.00;;;5.28;;
80119;SDS011;69425;55.040;82.918;2023-07-08T07:25:23;10.70;;;6.63;;
80119;SDS011;69425;55.040;82.918;2023-07-08T07:30:24;7.78;;;4.85;;
80119;SDS011;69425;55.040;82.918;2023-07-08T07:35:25;5.80;;;4.35;;
80119;SDS011;69425;55.040;82.918;2023-07-08T07:40:28;4.95;;;3.33;;
80119;SDS011;69425;55.040;82.918;2023-07-08T07:45:29;6.07;;;3.88;;
80119;SDS011;69425;55.040;82.918;2023-07-08T07:50:30;7.95;;;4.45;;
80119;SDS011;69425;55.040;82.918;2023-07-08T07:55:33;7.85;;;4.60;;
80119;SDS011;69425;55.040;82.918;2023-07-08T08:00:34;8.52;;;5.88;;
80119;SDS011;69425;55.040;82.918;2023-07-08T08:05:35;9.02;;;6.90;;
80119;SDS011;69425;55.040;82.918;2023-07-08T08:10:38;7.80;;;5.88;;
80119;SDS011;69425;55.040;82.918;2023-07-08T08:15:39;9.65;;;6.07;;
80119;SDS011;69425;55.040;82.918;2023-07-08T08:20:43;7.65;;;5.65;;
80119;SDS011;69425;55.040;82.918;2023-07-08T08:25:46;10.48;;;6.10;;
80119;SDS011;69425;55.040;82.918;2023-07-08T08:30:47;8.63;;;6.82;;
80119;SDS011;69425;55.040;82.918;2023-07-08T08:35:49;10.93;;;5.45;;
80119;SDS011;69425;55.040;82.918;2023-07-08T08:40:51;6.95;;;4.45;;
80119;SDS011;69425;55.040;82.918;2023-07-08T08:46:03;6.70;;;3.58;;
80119;SDS011;69425;55.040;82.918;2023-07-08T08:51:06;5.47;;;4.38;;
80119;SDS011;69425;55.040;82.918;2023-07-08T08:56:12;6.90;;;3.90;;
80119;SDS011;69425;55.040;82.918;2023-07-08T09:01:17;4.47;;;3.67;;
80119;SDS011;69425;55.040;82.918;2023-07-08T09:06:19;7.40;;;4.35;;
80119;SDS011;69425;55.040;82.918;2023-07-08T09:11:34;10.38;;;4.85;;
80119;SDS011;69425;55.040;82.918;2023-07-08T09:16:40;10.65;;;5.95;;
80119;SDS011;69425;55.040;82.918;2023-07-08T09:21:51;6.32;;;5.30;;
80119;SDS011;69425;55.040;82.918;2023-07-08T09:26:57;8.02;;;5.28;;
80119;SDS011;69425;55.040;82.918;2023-07-08T09:32:01;7.22;;;5.07;;
80119;SDS011;69425;55.040;82.918;2023-07-08T09:37:22;8.10;;;5.40;;
80119;SDS011;69425;55.040;82.918;2023-07-08T09:42:27;4.97;;;4.18;;
80119;SDS011;69425;55.040;82.918;2023-07-08T09:47:32;8.23;;;5.47;;
80119;SDS011;69425;55.040;82.918;2023-07-08T09:52:34;7.30;;;4.88;;
80119;SDS011;69425;55.040;82.918;2023-07-08T09:57:37;7.25;;;4.32;;
80119;SDS011;69425;55.040;82.918;2023-07-08T10:02:40;5.85;;;4.63;;
80119;SDS011;69425;55.040;82.918;2023-07-08T10:07:42;3.97;;;3.58;;
80119;SDS011;69425;55.040;82.918;2023-07-08T10:12:51;5.25;;;3.83;;
80119;SDS011;69425;55.040;82.918;2023-07-08T10:17:56;8.25;;;4.00;;
80119;SDS011;69425;55.040;82.918;2023-07-08T10:23:00;6.18;;;4.15;;
80119;SDS011;69425;55.040;82.918;2023-07-08T10:28:20;8.07;;;4.18;;
80119;SDS011;69425;55.040;82.918;2023-07-08T10:38:53;8.18;;;4.40;;
80119;SDS011;69425;55.040;82.918;2023-07-08T10:44:04;6.68;;;3.78;;
80119;SDS011;69425;55.040;82.918;2023-07-08T10:54:24;5.45;;;3.75;;
80119;SDS011;69425;55.040;82.918;2023-07-08T11:04:58;4.35;;;3.25;;
80119;SDS011;69425;55.040;82.918;2023-07-08T11:10:07;4.88;;;3.30;;
80119;SDS011;69425;55.040;82.918;2023-07-08T11:15:17;5.05;;;3.45;;
80119;SDS011;69425;55.040;82.918;2023-07-08T11:25:22;4.53;;;3.05;;
80119;SDS011;69425;55.040;82.918;2023-07-08T11:30:27;9.30;;;3.65;;
80119;SDS011;69425;55.040;82.918;2023-07-08T11:35:35;5.68;;;4.40;;
80119;SDS011;69425;55.040;82.918;2023-07-08T11:40:49;5.35;;;3.70;;
80119;SDS011;69425;55.040;82.918;2023-07-08T11:45:53;5.82;;;4.30;;
80119;SDS011;69425;55.040;82.918;2023-07-08T11:50:55;7.43;;;5.28;;
80119;SDS011;69425;55.040;82.918;2023-07-08T11:55:57;5.45;;;4.20;;
80119;SDS011;69425;55.040;82.918;2023-07-08T12:01:03;6.68;;;4.25;;
80119;SDS011;69425;55.040;82.918;2023-07-08T12:11:35;6.78;;;3.90;;
80119;SDS011;69425;55.040;82.918;2023-07-08T12:16:42;6.13;;;4.15;;
80119;SDS011;69425;55.040;82.918;2023-07-08T12:21:43;5.75;;;3.97;;
80119;SDS011;69425;55.040;82.918;2023-07-08T12:26:44;3.92;;;3.38;;
80119;SDS011;69425;55.040;82.918;2023-07-08T12:31:47;7.70;;;4.68;;
80119;SDS011;69425;55.040;82.918;2023-07-08T12:36:49;6.80;;;3.65;;
80119;SDS011;69425;55.040;82.918;2023-07-08T12:41:50;6.20;;;4.72;;
80119;SDS011;69425;55.040;82.918;2023-07-08T12:46:54;7.57;;;5.25;;
80119;SDS011;69425;55.040;82.918;2023-07-08T12:51:55;10.77;;;5.70;;
80119;SDS011;69425;55.040;82.918;2023-07-08T12:56:57;6.93;;;5.03;;
80119;SDS011;69425;55.040;82.918;2023-07-08T13:02:00;6.22;;;5.18;;
80119;SDS011;69425;55.040;82.918;2023-07-08T13:07:02;8.10;;;5.22;;
80119;SDS011;69425;55.040;82.918;2023-07-08T13:12:05;7.78;;;5.40;;
80119;SDS011;69425;55.040;82.918;2023-07-08T13:17:15;10.45;;;5.68;;
80119;SDS011;69425;55.040;82.918;2023-07-08T13:22:17;9.43;;;5.95;;
80119;SDS011;69425;55.040;82.918;2023-07-08T13:27:21;8.70;;;5.63;;
80119;SDS011;69425;55.040;82.918;2023-07-08T13:32:30;9.35;;;5.70;;
80119;SDS011;69425;55.040;82.918;2023-07-08T13:37:32;9.10;;;5.30;;
80119;SDS011;69425;55.040;82.918;2023-07-08T13:42:33;9.90;;;6.22;;
80119;SDS011;69425;55.040;82.918;2023-07-08T13:47:36;6.53;;;5.30;;
80119;SDS011;69425;55.040;82.918;2023-07-08T13:52:37;12.27;;;6.97;;
80119;SDS011;69425;55.040;82.918;2023-07-08T13:57:38;8.00;;;5.40;;
80119;SDS011;69425;55.040;82.918;2023-07-08T14:02:43;7.68;;;5.05;;
80119;SDS011;69425;55.040;82.918;2023-07-08T14:07:44;7.47;;;5.25;;
80119;SDS011;69425;55.040;82.918;2023-07-08T14:12:46;8.82;;;6.13;;
80119;SDS011;69425;55.040;82.918;2023-07-08T14:17:48;7.78;;;5.45;;
80119;SDS011;69425;55.040;82.918;2023-07-08T14:22:49;8.35;;;5.88;;
80119;SDS011;69425;55.040;82.918;2023-07-08T14:27:51;7.95;;;5.55;;
80119;SDS011;69425;55.040;82.918;2023-07-08T14:32:53;8.02;;;6.32;;
80119;SDS011;69425;55.040;82.918;2023-07-08T14:37:55;12.57;;;6.55;;
80119;SDS011;69425;55.040;82.918;2023-07-08T14:43:00;9.43;;;6.35;;
80119;SDS011;69425;55.040;82.918;2023-07-08T14:48:11;9.50;;;6.57;;
80119;SDS011;69425;55.040;82.918;2023-07-08T14:53:13;10.30;;;7.05;;
80119;SDS011;69425;55.040;82.918;2023-07-08T14:58:16;11.02;;;6.95;;
80119;SDS011;69425;55.040;82.918;2023-07-08T15:03:21;11.88;;;6.85;;
80119;SDS011;69425;55.040;82.918;2023-07-08T15:08:23;10.88;;;7.88;;
80119;SDS011;69425;55.040;82.918;2023-07-08T15:13:24;14.43;;;7.70;;
80119;SDS011;69425;55.040;82.918;2023-07-08T15:18:28;13.25;;;9.00;;
80119;SDS011;69425;55.040;82.918;2023-07-08T15:23:29;12.65;;;7.13;;
80119;SDS011;69425;55.040;82.918;2023-07-08T15:28:38;13.23;;;8.18;;
80119;SDS011;69425;55.040;82.918;2023-07-08T15:33:42;14.55;;;7.88;;
80119;SDS011;69425;55.040;82.918;2023-07-08T15:38:44;11.65;;;7.82;;
80119;SDS011;69425;55.040;82.918;2023-07-08T15:43:45;10.07;;;6.60;;
80119;SDS011;69425;55.040;82.918;2023-07-08T15:48:48;9.88;;;6.50;;
80119;SDS011;69425;55.040;82.918;2023-07-08T15:53:49;9.68;;;6.72;;
80119;SDS011;69425;55.040;82.918;2023-07-08T15:58:50;7.63;;;5.47;;
80119;SDS011;69425;55.040;82.918;2023-07-08T16:03:53;4.97;;;4.45;;
80119;SDS011;69425;55.040;82.918;2023-07-08T16:08:54;8.07;;;4.45;;
80119;SDS011;69425;55.040;82.918;2023-07-08T16:13:56;7.43;;;4.07;;
80119;SDS011;69425;55.040;82.918;2023-07-08T16:18:59;5.63;;;3.97;;
80119;SDS011;69425;55.040;82.918;2023-07-08T16:24:00;6.05;;;4.47;;
80119;SDS011;69425;55.040;82.918;2023-07-08T16:29:01;5.95;;;4.38;;
80119;SDS011;69425;55.040;82.918;2023-07-08T16:34:07;6.72;;;4.25;;
80119;SDS011;69425;55.040;82.918;2023-07-08T16:39:08;7.32;;;4.65;;
80119;SDS011;69425;55.040;82.918;2023-07-08T16:44:12;6.63;;;4.18;;
80119;SDS011;69425;55.040;82.918;2023-07-08T16:49:15;7.72;;;4.00;;
80119;SDS011;69425;55.040;82.918;2023-07-08T16:54:17;6.05;;;4.03;;
80119;SDS011;69425;55.040;82.918;2023-07-08T16:59:18;6.63;;;4.63;;
80119;SDS011;69425;55.040;82.918;2023-07-08T17:04:21;7.65;;;4.72;;
80119;SDS011;69425;55.040;82.918;2023-07-08T17:09:22;6.88;;;3.90;;
80119;SDS011;69425;55.040;82.918;2023-07-08T17:14:24;5.00;;;3.63;;
80119;SDS011;69425;55.040;82.918;2023-07-08T17:19:26;6.28;;;4.60;;
80119;SDS011;69425;55.040;82.918;2023-07-08T17:24:27;8.98;;;5.75;;
80119;SDS011;69425;55.040;82.918;2023-07-08T17:29:29;7.85;;;5.38;;
80119;SDS011;69425;55.040;82.918;2023-07-08T17:34:31;8.90;;;5.78;;
80119;SDS011;69425;55.040;82.918;2023-07-08T17:39:33;7.80;;;5.80;;
80119;SDS011;69425;55.040;82.918;2023-07-08T17:44:34;6.90;;;5.18;;
80119;SDS011;69425;55.040;82.918;2023-07-08T17:49:37;6.68;;;4.75;;
80119;SDS011;69425;55.040;82.918;2023-07-08T17:54:39;9.30;;;4.90;;
80119;SDS011;69425;55.040;82.918;2023-07-08T17:59:40;6.28;;;4.63;;
80119;SDS011;69425;55.040;82.918;2023-07-08T18:04:42;7.13;;;4.60;;
80119;SDS011;69425;55.040;82.918;2023-07-08T18:09:44;7.63;;;4.80;;
80119;SDS011;69425;55.040;82.918;2023-07-08T18:14:45;6.55;;;5.00;;
80119;SDS011;69425;55.040;82.918;2023-07-08T18:19:48;7.18;;;4.22;;
80119;SDS011;69425;55.040;82.918;2023-07-08T18:24:49;6.05;;;4.47;;
80119;SDS011;69425;55.040;82.918;2023-07-08T18:29:50;6.25;;;3.97;;
80119;SDS011;69425;55.040;82.918;2023-07-08T18:34:53;6.47;;;4.00;;
80119;SDS011;69425;55.040;82.918;2023-07-08T18:39:54;6.55;;;3.92;;
80119;SDS011;69425;55.040;82.918;2023-07-08T18:44:55;6.35;;;4.47;;
80119;SDS011;69425;55.040;82.918;2023-07-08T18:49:58;6.50;;;4.10;;
80119;SDS011;69425;55.040;82.918;2023-07-08T18:54:59;5.03;;;4.10;;
80119;SDS011;69425;55.040;82.918;2023-07-08T19:00:00;7.95;;;4.32;;
80119;SDS011;69425;55.040;82.918;2023-07-08T19:05:03;7.38;;;4.82;;
80119;SDS011;69425;55.040;82.918;2023-07-08T19:10:06;6.68;;;4.80;;
80119;SDS011;69425;55.040;82.918;2023-07-08T19:15:11;6.07;;;4.78;;
80119;SDS011;69425;55.040;82.918;2023-07-08T19:20:19;6.85;;;4.57;;
80119;SDS011;69425;55.040;82.918;2023-07-08T19:25:21;6.45;;;4.38;;
80119;SDS011;69425;55.040;82.918;2023-07-08T19:30:24;7.45;;;4.90;;
80119;SDS011;69425;55.040;82.918;2023-07-08T19:35:27;5.90;;;4.63;;
80119;SDS011;69425;55.040;82.918;2023-07-08T19:40:33;6.60;;;4.72;;
80119;SDS011;69425;55.040;82.918;2023-07-08T19:45:35;6.45;;;4.63;;
80119;SDS011;69425;55.040;82.918;2023-07-08T19:50:41;9.32;;;5.13;;
80119;SDS011;69425;55.040;82.918;2023-07-08T19:55:42;8.88;;;5.82;;
80119;SDS011;69425;55.040;82.918;2023-07-08T20:00:43;9.73;;;6.05;;
80119;SDS011;69425;55.040;82.918;2023-07-08T20:05:46;8.98;;;5.85;;
80119;SDS011;69425;55.040;82.918;2023-07-08T20:10:48;13.88;;;6.93;;
80119;SDS011;69425;55.040;82.918;2023-07-08T20:15:50;10.13;;;6.05;;
80119;SDS011;69425;55.040;82.918;2023-07-08T20:20:52;9.13;;;5.22;;
80119;SDS011;69425;55.040;82.918;2023-07-08T20:25:54;9.15;;;5.88;;
80119;SDS011;69425;55.040;82.918;2023-07-08T20:30:55;9.00;;;5.18;;
80119;SDS011;69425;55.040;82.918;2023-07-08T20:35:58;8.38;;;5.28;;
80119;SDS011;69425;55.040;82.918;2023-07-08T20:40:59;11.32;;;6.53;;
80119;SDS011;69425;55.040;82.918;2023-07-08T20:46:01;10.80;;;5.30;;
80119;SDS011;69425;55.040;82.918;2023-07-08T20:51:04;7.88;;;4.43;;
80119;SDS011;69425;55.040;82.918;2023-07-08T20:56:07;10.15;;;5.38;;
80119;SDS011;69425;55.040;82.918;2023-07-08T21:01:12;11.30;;;5.97;;
80119;SDS011;69425;55.040;82.918;2023-07-08T21:06:18;12.45;;;5.95;;
80119;SDS011;69425;55.040;82.918;2023-07-08T21:11:21;10.30;;;5.45;;
80119;SDS011;69425;55.040;82.918;2023-07-08T21:16:22;7.80;;;4.35;;
80119;SDS011;69425;55.040;82.918;2023-07-08T21:21:26;11.10;;;5.60;;
80119;SDS011;69425;55.040;82.918;2023-07-08T21:26:28;8.73;;;5.43;;
80119;SDS011;69425;55.040;82.918;2023-07-08T21:31:30;8.00;;;4.47;;
80119;SDS011;69425;55.040;82.918;2023-07-08T21:36:33;8.10;;;5.00;;
80119;SDS011;69425;55.040;82.918;2023-07-08T21:41:35;10.05;;;5.47;;
80119;SDS011;69425;55.040;82.918;2023-07-08T21:46:36;7.93;;;5.03;;
80119;SDS011;69425;55.040;82.918;2023-07-08T21:51:39;18.80;;;9.18;;
80119;SDS011;69425;55.040;82.918;2023-07-08T21:56:40;9.65;;;5.70;;
80119;SDS011;69425;55.040;82.918;2023-07-08T22:01:41;10.93;;;6.68;;
80119;SDS011;69425;55.040;82.918;2023-07-08T22:06:44;9.27;;;6.70;;
80119;SDS011;69425;55.040;82.918;2023-07-08T22:11:45;10.27;;;6.70;;
80119;SDS011;69425;55.040;82.918;2023-07-08T22:16:47;12.15;;;7.05;;
80119;SDS011;69425;55.040;82.918;2023-07-08T22:21:49;11.38;;;7.55;;
80119;SDS011;69425;55.040;82.918;2023-07-08T22:26:50;11.15;;;7.05;;
80119;SDS011;69425;55.040;82.918;2023-07-08T22:31:52;9.80;;;7.05;;
80119;SDS011;69425;55.040;82.918;2023-07-08T22:36:54;7.63;;;5.10;;
80119;SDS011;69425;55.040;82.918;2023-07-08T22:41:55;7.13;;;4.60;;
80119;SDS011;69425;55.040;82.918;2023-07-08T22:46:57;6.82;;;4.50;;
80119;SDS011;69425;55.040;82.918;2023-07-08T22:51:59;6.57;;;4.50;;
80119;SDS011;69425;55.040;82.918;2023-07-08T22:57:00;7.63;;;4.05;;
80119;SDS011;69425;55.040;82.918;2023-07-08T23:02:02;7.13;;;4.30;;
80119;SDS011;69425;55.040;82.918;2023-07-08T23:07:05;4.20;;;3.30;;
80119;SDS011;69425;55.040;82.918;2023-07-08T23:12:07;6.10;;;3.53;;
80119;SDS011;69425;55.040;82.918;2023-07-08T23:17:10;6.45;;;3.85;;
80119;SDS011;69425;55.040;82.918;2023-07-08T23:22:16;6.00;;;4.43;;
80119;SDS011;69425;55.040;82.918;2023-07-08T23:27:19;6.30;;;4.38;;
80119;SDS011;69425;55.040;82.918;2023-07-08T23:32:22;8.40;;;4.55;;
80119;SDS011;69425;55.040;82.918;2023-07-08T23:37:25;7.05;;;4.38;;
80119;SDS011;69425;55.040;82.918;2023-07-08T23:42:27;8.48;;;5.35;;
80119;SDS011;69425;55.040;82.918;2023-07-08T23:47:28;10.45;;;5.70;;
80119;SDS011;69425;55.040;82.918;2023-07-08T23:52:31;10.48;;;6.28;;
80119;SDS011;69425;55.040;82.918;2023-07-08T23:57:33;9.68;;;6.60;;
